sensor_id;sensor_type;location;lat;lon;timestamp;pressure;altitude;pressure_sealevel;temperature;humidity
38452;BME280;24231;52.514;13.438;2023-04-05T00:01:59;101978.86;;;6.83;33.90
38452;BME280;24231;52.514;13.438;2023-04-05T00:04:26;101982.65;;;6.57;34.30
38452;BME280;24231;52.514;13.438;2023-04-05T00:06:53;101980.09;;;6.53;34.12
38452;BME280;24231;52.514;13.438;2023-04-05T00:09:21;101983.39;;;6.32;34.60
38452;BME280;24231;52.514;13.438;2023-04-05T00:11:48;101983.02;;;6.85;33.91
38452;BME280;24231;52.514;13.438;2023-04-05T00:14:15;101985.04;;;7.05;33.50
38452;BME280;24231;52.514;13.438;2023-04-05T00:16:42;101983.34;;;7.09;33.57
38452;BME280;24231;52.514;13.438;2023-04-05T00:19:09;101982.72;;;7.10;33.84
38452;BME280;24231;52.514;13.438;2023-04-05T00:21:36;101981.94;;;7.28;33.70
38452;BME280;24231;52.514;13.438;2023-04-05T00:24:04;101983.34;;;6.99;33.99
38452;BME280;24231;52.514;13.438;2023-04-05T00:26:31;101983.58;;;6.88;33.86
38452;BME280;24231;52.514;13.438;2023-04-05T00:28:58;101982.06;;;7.00;33.69
38452;BME280;24231;52.514;13.438;2023-04-05T00:31:30;101976.34;;;7.24;33.28
38452;BME280;24231;52.514;13.438;2023-04-05T00:33:57;101976.11;;;7.31;33.25
38452;BME280;24231;52.514;13.438;2023-04-05T00:36:24;101977.07;;;6.76;34.21
38452;BME280;24231;52.514;13.438;2023-04-05T00:38:51;101972.73;;;6.94;34.00
38452;BME280;24231;52.514;13.438;2023-04-05T00:41:19;101972.47;;;6.67;34.73
38452;BME280;24231;52.514;13.438;2023-04-05T00:43:46;101974.54;;;6.93;34.76
38452;BME280;24231;52.514;13.438;2023-04-05T00:46:13;101971.26;;;6.53;34.84
38452;BME280;24231;52.514;13.438;2023-04-05T00:48:39;101974.59;;;6.75;34.47
38452;BME280;24231;52.514;13.438;2023-04-05T00:51:09;101968.80;;;6.52;34.90
38452;BME280;24231;52.514;13.438;2023-04-05T00:53:37;101968.06;;;6.89;34.50
38452;BME280;24231;52.514;13.438;2023-04-05T00:56:04;101967.64;;;6.55;34.46
38452;BME280;24231;52.514;13.438;2023-04-05T00:58:32;101966.95;;;5.61;35.89
38452;BME280;24231;52.514;13.438;2023-04-05T01:01:03;101962.57;;;5.86;35.55
38452;BME280;24231;52.514;13.438;2023-04-05T01:03:34;101961.90;;;5.58;35.94
38452;BME280;24231;52.514;13.438;2023-04-05T01:06:13;101961.89;;;6.70;34.74
38452;BME280;24231;52.514;13.438;2023-04-05T01:08:51;101960.06;;;6.45;34.79
38452;BME280;24231;52.514;13.438;2023-04-05T01:11:19;101961.60;;;6.51;35.12
38452;BME280;24231;52.514;13.438;2023-04-05T01:13:48;101959.49;;;6.53;34.58
38452;BME280;24231;52.514;13.438;2023-04-05T01:16:15;101958.78;;;6.43;34.53
38452;BME280;24231;52.514;13.438;2023-04-05T01:18:43;101960.80;;;6.52;34.40
38452;BME280;24231;52.514;13.438;2023-04-05T01:21:36;101959.60;;;6.06;34.63
38452;BME280;24231;52.514;13.438;2023-04-05T01:24:19;101962.35;;;6.23;34.83
38452;BME280;24231;52.514;13.438;2023-04-05T01:26:57;101963.37;;;5.64;35.66
38452;BME280;24231;52.514;13.438;2023-04-05T01:29:44;101960.11;;;6.46;34.49
38452;BME280;24231;52.514;13.438;2023-04-05T01:32:24;101954.65;;;6.32;34.43
38452;BME280;24231;52.514;13.438;2023-04-05T01:34:56;101955.24;;;5.33;35.46
38452;BME280;24231;52.514;13.438;2023-04-05T01:37:30;101953.49;;;5.50;35.48
38452;BME280;24231;52.514;13.438;2023-04-05T01:39:59;101955.70;;;5.62;35.19
38452;BME280;24231;52.514;13.438;2023-04-05T01:42:27;101950.78;;;5.38;35.37
38452;BME280;24231;52.514;13.438;2023-04-05T01:44:56;101950.24;;;5.71;35.18
38452;BME280;24231;52.514;13.438;2023-04-05T01:47:24;101948.23;;;6.07;34.74
38452;BME280;24231;52.514;13.438;2023-04-05T01:49:50;101949.39;;;6.40;34.31
38452;BME280;24231;52.514;13.438;2023-04-05T01:52:17;101949.07;;;6.34;34.36
38452;BME280;24231;52.514;13.438;2023-04-05T01:54:44;101946.90;;;6.34;34.50
38452;BME280;24231;52.514;13.438;2023-04-05T01:57:11;101946.60;;;6.08;34.65
38452;BME280;24231;52.514;13.438;2023-04-05T01:59:38;101944.50;;;6.19;35.02
38452;BME280;24231;52.514;13.438;2023-04-05T02:02:04;101943.07;;;6.42;34.77
38452;BME280;24231;52.514;13.438;2023-04-05T02:04:31;101941.09;;;6.56;34.27
38452;BME280;24231;52.514;13.438;2023-04-05T02:06:58;101937.87;;;6.53;34.79
38452;BME280;24231;52.514;13.438;2023-04-05T02:09:25;101937.17;;;6.59;34.48
38452;BME280;24231;52.514;13.438;2023-04-05T02:11:52;101938.68;;;6.85;34.00
38452;BME280;24231;52.514;13.438;2023-04-05T02:14:18;101940.28;;;6.40;34.72
38452;BME280;24231;52.514;13.438;2023-04-05T02:16:46;101932.74;;;5.82;35.56
38452;BME280;24231;52.514;13.438;2023-04-05T02:19:13;101933.49;;;5.11;36.60
38452;BME280;24231;52.514;13.438;2023-04-05T02:21:40;101928.97;;;6.16;35.20
38452;BME280;24231;52.514;13.438;2023-04-05T02:24:07;101929.92;;;6.05;35.15
38452;BME280;24231;52.514;13.438;2023-04-05T02:26:34;101928.99;;;6.18;34.92
38452;BME280;24231;52.514;13.438;2023-04-05T02:29:01;101926.51;;;6.75;34.44
38452;BME280;24231;52.514;13.438;2023-04-05T02:31:28;101925.55;;;6.55;34.65
38452;BME280;24231;52.514;13.438;2023-04-05T02:33:55;101921.35;;;6.69;34.29
38452;BME280;24231;52.514;13.438;2023-04-05T02:36:22;101920.79;;;6.99;33.92
38452;BME280;24231;52.514;13.438;2023-04-05T02:38:49;101916.52;;;6.95;33.99
38452;BME280;24231;52.514;13.438;2023-04-05T02:41:16;101916.09;;;6.92;34.18
38452;BME280;24231;52.514;13.438;2023-04-05T02:43:43;101920.62;;;7.11;34.41
38452;BME280;24231;52.514;13.438;2023-04-05T02:46:10;101923.07;;;6.83;34.77
38452;BME280;24231;52.514;13.438;2023-04-05T02:48:37;101919.89;;;6.60;35.14
38452;BME280;24231;52.514;13.438;2023-04-05T02:51:04;101920.57;;;6.59;35.24
38452;BME280;24231;52.514;13.438;2023-04-05T02:53:31;101917.92;;;6.66;35.21
38452;BME280;24231;52.514;13.438;2023-04-05T02:55:58;101916.70;;;6.59;35.21
38452;BME280;24231;52.514;13.438;2023-04-05T02:58:25;101916.21;;;6.76;35.29
38452;BME280;24231;52.514;13.438;2023-04-05T03:00:52;101910.33;;;6.37;35.52
38452;BME280;24231;52.514;13.438;2023-04-05T03:03:20;101905.28;;;5.95;36.32
38452;BME280;24231;52.514;13.438;2023-04-05T03:05:55;101906.77;;;6.68;35.48
38452;BME280;24231;52.514;13.438;2023-04-05T03:08:22;101904.83;;;6.99;35.33
38452;BME280;24231;52.514;13.438;2023-04-05T03:10:50;101903.52;;;7.03;35.44
38452;BME280;24231;52.514;13.438;2023-04-05T03:13:18;101900.36;;;6.66;35.90
38452;BME280;24231;52.514;13.438;2023-04-05T03:15:44;101896.25;;;6.63;36.19
38452;BME280;24231;52.514;13.438;2023-04-05T03:18:11;101898.26;;;6.57;36.37
38452;BME280;24231;52.514;13.438;2023-04-05T03:20:38;101901.96;;;6.51;36.60
38452;BME280;24231;52.514;13.438;2023-04-05T03:23:06;101903.02;;;6.85;36.26
38452;BME280;24231;52.514;13.438;2023-04-05T03:25:34;101900.29;;;6.65;36.61
38452;BME280;24231;52.514;13.438;2023-04-05T03:28:02;101899.87;;;6.68;36.90
38452;BME280;24231;52.514;13.438;2023-04-05T03:30:29;101898.41;;;6.05;37.92
38452;BME280;24231;52.514;13.438;2023-04-05T03:32:57;101898.66;;;5.94;38.65
38452;BME280;24231;52.514;13.438;2023-04-05T03:35:24;101896.29;;;6.11;38.60
38452;BME280;24231;52.514;13.438;2023-04-05T03:37:56;101890.93;;;5.65;39.25
38452;BME280;24231;52.514;13.438;2023-04-05T03:40:23;101890.27;;;6.19;38.71
38452;BME280;24231;52.514;13.438;2023-04-05T03:42:51;101892.41;;;6.45;38.22
38452;BME280;24231;52.514;13.438;2023-04-05T03:45:18;101890.38;;;6.19;38.82
38452;BME280;24231;52.514;13.438;2023-04-05T03:47:46;101888.76;;;6.41;38.35
38452;BME280;24231;52.514;13.438;2023-04-05T03:50:13;101888.39;;;5.26;40.35
38452;BME280;24231;52.514;13.438;2023-04-05T03:52:40;101885.39;;;5.65;40.19
38452;BME280;24231;52.514;13.438;2023-04-05T03:55:07;101883.56;;;5.73;40.12
38452;BME280;24231;52.514;13.438;2023-04-05T03:57:36;101880.52;;;5.91;39.73
38452;BME280;24231;52.514;13.438;2023-04-05T04:00:04;101883.48;;;6.34;39.57
38452;BME280;24231;52.514;13.438;2023-04-05T04:02:32;101881.78;;;6.32;39.38
38452;BME280;24231;52.514;13.438;2023-04-05T04:04:59;101883.25;;;6.21;39.69
38452;BME280;24231;52.514;13.438;2023-04-05T04:07:26;101879.35;;;5.96;40.35
38452;BME280;24231;52.514;13.438;2023-04-05T04:09:53;101882.71;;;6.05;39.94
38452;BME280;24231;52.514;13.438;2023-04-05T04:12:23;101881.79;;;6.58;39.82
38452;BME280;24231;52.514;13.438;2023-04-05T04:14:50;101883.23;;;6.50;39.69
38452;BME280;24231;52.514;13.438;2023-04-05T04:17:25;101883.25;;;6.12;40.35
38452;BME280;24231;52.514;13.438;2023-04-05T04:19:52;101879.00;;;6.24;40.45
38452;BME280;24231;52.514;13.438;2023-04-05T04:22:19;101881.00;;;6.19;40.50
38452;BME280;24231;52.514;13.438;2023-04-05T04:24:47;101880.06;;;4.98;42.55
38452;BME280;24231;52.514;13.438;2023-04-05T04:27:14;101880.10;;;5.93;40.98
38452;BME280;24231;52.514;13.438;2023-04-05T04:29:41;101880.65;;;5.03;42.38
38452;BME280;24231;52.514;13.438;2023-04-05T04:32:08;101877.34;;;5.56;42.19
38452;BME280;24231;52.514;13.438;2023-04-05T04:34:35;101872.88;;;5.69;42.01
38452;BME280;24231;52.514;13.438;2023-04-05T04:37:02;101874.07;;;6.07;41.50
38452;BME280;24231;52.514;13.438;2023-04-05T04:39:29;101877.97;;;6.06;41.08
38452;BME280;24231;52.514;13.438;2023-04-05T04:41:56;101878.01;;;6.19;40.94
38452;BME280;24231;52.514;13.438;2023-04-05T04:44:24;101880.29;;;6.14;41.33
38452;BME280;24231;52.514;13.438;2023-04-05T04:46:51;101882.63;;;4.91;43.12
38452;BME280;24231;52.514;13.438;2023-04-05T04:49:18;101886.92;;;4.97;43.40
38452;BME280;24231;52.514;13.438;2023-04-05T04:51:54;101888.96;;;4.53;44.40
38452;BME280;24231;52.514;13.438;2023-04-05T04:54:22;101887.53;;;4.94;43.84
38452;BME280;24231;52.514;13.438;2023-04-05T04:56:48;101884.08;;;5.44;42.53
38452;BME280;24231;52.514;13.438;2023-04-05T04:59:16;101881.67;;;5.47;42.07
38452;BME280;24231;52.514;13.438;2023-04-05T05:01:44;101882.05;;;5.41;42.06
38452;BME280;24231;52.514;13.438;2023-04-05T05:04:11;101885.24;;;5.45;42.42
38452;BME280;24231;52.514;13.438;2023-04-05T05:06:38;101881.24;;;5.63;41.72
38452;BME280;24231;52.514;13.438;2023-04-05T05:09:05;101881.31;;;5.31;42.35
38452;BME280;24231;52.514;13.438;2023-04-05T05:11:32;101882.76;;;5.29;42.22
38452;BME280;24231;52.514;13.438;2023-04-05T05:14:00;101880.28;;;5.69;41.50
38452;BME280;24231;52.514;13.438;2023-04-05T05:16:27;101883.80;;;5.31;42.31
38452;BME280;24231;52.514;13.438;2023-04-05T05:18:54;101879.32;;;5.78;41.82
38452;BME280;24231;52.514;13.438;2023-04-05T05:21:21;101875.40;;;5.30;42.50
38452;BME280;24231;52.514;13.438;2023-04-05T05:23:48;101875.97;;;5.40;41.61
38452;BME280;24231;52.514;13.438;2023-04-05T05:26:15;101878.64;;;5.61;41.36
38452;BME280;24231;52.514;13.438;2023-04-05T05:28:43;101879.81;;;5.89;40.82
38452;BME280;24231;52.514;13.438;2023-04-05T05:31:09;101878.09;;;6.01;40.58
38452;BME280;24231;52.514;13.438;2023-04-05T05:33:36;101878.29;;;5.93;40.64
38452;BME280;24231;52.514;13.438;2023-04-05T05:36:04;101877.66;;;6.47;40.21
38452;BME280;24231;52.514;13.438;2023-04-05T05:38:31;101880.59;;;6.80;39.28
38452;BME280;24231;52.514;13.438;2023-04-05T05:40:58;101879.20;;;6.86;39.04
38452;BME280;24231;52.514;13.438;2023-04-05T05:43:26;101878.76;;;5.94;40.52
38452;BME280;24231;52.514;13.438;2023-04-05T05:45:52;101877.39;;;5.12;41.90
38452;BME280;24231;52.514;13.438;2023-04-05T05:48:20;101872.10;;;5.81;40.95
38452;BME280;24231;52.514;13.438;2023-04-05T05:50:47;101870.35;;;5.63;41.58
38452;BME280;24231;52.514;13.438;2023-04-05T05:53:14;101866.76;;;5.91;41.31
38452;BME280;24231;52.514;13.438;2023-04-05T05:55:41;101868.25;;;6.25;40.51
38452;BME280;24231;52.514;13.438;2023-04-05T05:58:08;101865.37;;;6.07;40.87
38452;BME280;24231;52.514;13.438;2023-04-05T06:00:35;101863.84;;;5.52;41.52
38452;BME280;24231;52.514;13.438;2023-04-05T06:03:02;101862.89;;;6.32;40.18
38452;BME280;24231;52.514;13.438;2023-04-05T06:05:29;101863.43;;;6.84;39.29
38452;BME280;24231;52.514;13.438;2023-04-05T06:07:56;101860.69;;;5.60;41.09
38452;BME280;24231;52.514;13.438;2023-04-05T06:10:23;101862.17;;;6.18;40.31
38452;BME280;24231;52.514;13.438;2023-04-05T06:12:49;101863.69;;;5.64;41.18
38452;BME280;24231;52.514;13.438;2023-04-05T06:15:17;101876.77;;;6.08;40.61
38452;BME280;24231;52.514;13.438;2023-04-05T06:17:44;101879.21;;;5.31;42.22
38452;BME280;24231;52.514;13.438;2023-04-05T06:20:11;101872.88;;;6.10;40.47
38452;BME280;24231;52.514;13.438;2023-04-05T06:22:39;101874.14;;;6.39;39.72
38452;BME280;24231;52.514;13.438;2023-04-05T06:25:07;101873.28;;;5.97;39.92
38452;BME280;24231;52.514;13.438;2023-04-05T06:27:34;101865.25;;;7.03;38.17
38452;BME280;24231;52.514;13.438;2023-04-05T06:30:02;101864.55;;;7.37;38.06
38452;BME280;24231;52.514;13.438;2023-04-05T06:32:34;101867.42;;;7.09;38.77
38452;BME280;24231;52.514;13.438;2023-04-05T06:35:02;101869.85;;;7.24;38.74
38452;BME280;24231;52.514;13.438;2023-04-05T06:37:29;101876.26;;;6.28;39.83
38452;BME280;24231;52.514;13.438;2023-04-05T06:39:58;101876.82;;;6.72;39.71
38452;BME280;24231;52.514;13.438;2023-04-05T06:42:25;101879.80;;;6.67;39.78
38452;BME280;24231;52.514;13.438;2023-04-05T06:44:53;101876.46;;;6.87;39.61
38452;BME280;24231;52.514;13.438;2023-04-05T06:47:20;101877.88;;;6.73;40.33
38452;BME280;24231;52.514;13.438;2023-04-05T06:49:47;101870.16;;;7.47;38.99
38452;BME280;24231;52.514;13.438;2023-04-05T06:52:14;101869.62;;;7.18;39.42
38452;BME280;24231;52.514;13.438;2023-04-05T06:54:41;101877.92;;;6.42;41.18
38452;BME280;24231;52.514;13.438;2023-04-05T06:57:09;101873.42;;;6.03;41.38
38452;BME280;24231;52.514;13.438;2023-04-05T06:59:36;101869.52;;;7.03;40.28
38452;BME280;24231;52.514;13.438;2023-04-05T07:02:04;101868.27;;;6.95;40.30
38452;BME280;24231;52.514;13.438;2023-04-05T07:04:31;101860.08;;;7.35;39.71
38452;BME280;24231;52.514;13.438;2023-04-05T07:07:00;101858.21;;;7.68;39.66
38452;BME280;24231;52.514;13.438;2023-04-05T07:09:27;101861.54;;;7.88;39.15
38452;BME280;24231;52.514;13.438;2023-04-05T07:12:05;101859.50;;;7.97;38.97
38452;BME280;24231;52.514;13.438;2023-04-05T07:14:35;101856.64;;;7.95;39.22
38452;BME280;24231;52.514;13.438;2023-04-05T07:17:03;101851.82;;;8.00;38.65
38452;BME280;24231;52.514;13.438;2023-04-05T07:19:31;101849.97;;;8.53;38.61
38452;BME280;24231;52.514;13.438;2023-04-05T07:21:59;101851.93;;;8.28;38.76
38452;BME280;24231;52.514;13.438;2023-04-05T07:24:26;101850.82;;;8.55;38.54
38452;BME280;24231;52.514;13.438;2023-04-05T07:26:53;101856.18;;;8.77;38.04
38452;BME280;24231;52.514;13.438;2023-04-05T07:29:20;101859.40;;;8.62;38.16
38452;BME280;24231;52.514;13.438;2023-04-05T07:31:48;101866.27;;;7.94;39.09
38452;BME280;24231;52.514;13.438;2023-04-05T07:34:15;101864.01;;;8.28;38.96
38452;BME280;24231;52.514;13.438;2023-04-05T07:36:42;101851.53;;;8.94;37.83
38452;BME280;24231;52.514;13.438;2023-04-05T07:39:10;101847.31;;;9.49;36.95
38452;BME280;24231;52.514;13.438;2023-04-05T07:41:37;101862.59;;;8.18;38.64
38452;BME280;24231;52.514;13.438;2023-04-05T07:44:04;101868.50;;;8.52;37.86
38452;BME280;24231;52.514;13.438;2023-04-05T07:46:31;101871.97;;;8.89;37.31
38452;BME280;24231;52.514;13.438;2023-04-05T07:48:59;101872.87;;;8.04;39.33
38452;BME280;24231;52.514;13.438;2023-04-05T07:51:27;101867.90;;;7.77;39.83
38452;BME280;24231;52.514;13.438;2023-04-05T07:53:55;101863.94;;;8.53;38.52
38452;BME280;24231;52.514;13.438;2023-04-05T07:56:24;101859.84;;;9.12;37.52
38452;BME280;24231;52.514;13.438;2023-04-05T07:58:52;101860.73;;;9.66;36.42
38452;BME280;24231;52.514;13.438;2023-04-05T08:01:20;101856.77;;;10.74;34.37
38452;BME280;24231;52.514;13.438;2023-04-05T08:03:47;101849.32;;;11.55;33.06
38452;BME280;24231;52.514;13.438;2023-04-05T08:06:15;101850.95;;;11.82;32.64
38452;BME280;24231;52.514;13.438;2023-04-05T08:08:43;101853.19;;;11.74;33.34
38452;BME280;24231;52.514;13.438;2023-04-05T08:11:12;101854.11;;;12.17;31.63
38452;BME280;24231;52.514;13.438;2023-04-05T08:13:40;101851.11;;;12.51;30.96
38452;BME280;24231;52.514;13.438;2023-04-05T08:16:08;101851.03;;;12.75;30.57
38452;BME280;24231;52.514;13.438;2023-04-05T08:18:35;101851.22;;;12.05;31.36
38452;BME280;24231;52.514;13.438;2023-04-05T08:21:04;101851.88;;;12.18;31.33
38452;BME280;24231;52.514;13.438;2023-04-05T08:23:31;101850.03;;;11.55;31.78
38452;BME280;24231;52.514;13.438;2023-04-05T08:25:58;101848.65;;;12.15;30.87
38452;BME280;24231;52.514;13.438;2023-04-05T08:28:25;101848.74;;;11.31;31.73
38452;BME280;24231;52.514;13.438;2023-04-05T08:30:52;101850.01;;;11.43;31.93
38452;BME280;24231;52.514;13.438;2023-04-05T08:33:20;101847.50;;;11.70;31.69
38452;BME280;24231;52.514;13.438;2023-04-05T08:35:47;101845.01;;;11.71;31.52
38452;BME280;24231;52.514;13.438;2023-04-05T08:38:14;101846.62;;;12.12;31.56
38452;BME280;24231;52.514;13.438;2023-04-05T08:40:43;101848.54;;;12.32;29.93
38452;BME280;24231;52.514;13.438;2023-04-05T08:43:13;101848.24;;;12.24;30.20
38452;BME280;24231;52.514;13.438;2023-04-05T08:45:49;101856.57;;;9.77;33.02
38452;BME280;24231;52.514;13.438;2023-04-05T08:48:19;101846.99;;;11.40;31.36
38452;BME280;24231;52.514;13.438;2023-04-05T08:50:50;101848.28;;;12.56;29.72
38452;BME280;24231;52.514;13.438;2023-04-05T08:53:17;101846.26;;;12.93;29.06
38452;BME280;24231;52.514;13.438;2023-04-05T08:55:47;101846.48;;;11.63;30.63
38452;BME280;24231;52.514;13.438;2023-04-05T08:58:15;101850.34;;;12.50;29.74
38452;BME280;24231;52.514;13.438;2023-04-05T09:00:43;101847.67;;;11.83;30.42
38452;BME280;24231;52.514;13.438;2023-04-05T09:03:14;101846.60;;;11.46;30.76
38452;BME280;24231;52.514;13.438;2023-04-05T09:05:45;101845.19;;;11.37;30.92
38452;BME280;24231;52.514;13.438;2023-04-05T09:08:15;101843.92;;;12.09;29.81
38452;BME280;24231;52.514;13.438;2023-04-05T09:10:44;101842.62;;;11.45;31.05
38452;BME280;24231;52.514;13.438;2023-04-05T09:13:11;101844.55;;;12.47;29.84
38452;BME280;24231;52.514;13.438;2023-04-05T09:15:38;101842.95;;;12.32;29.58
38452;BME280;24231;52.514;13.438;2023-04-05T09:18:06;101835.97;;;13.39;28.95
38452;BME280;24231;52.514;13.438;2023-04-05T09:20:33;101833.90;;;13.27;28.47
38452;BME280;24231;52.514;13.438;2023-04-05T09:23:01;101835.47;;;13.38;28.51
38452;BME280;24231;52.514;13.438;2023-04-05T09:25:37;101839.03;;;13.32;28.76
38452;BME280;24231;52.514;13.438;2023-04-05T09:28:05;101836.55;;;12.75;29.92
38452;BME280;24231;52.514;13.438;2023-04-05T09:30:33;101838.93;;;12.03;30.18
38452;BME280;24231;52.514;13.438;2023-04-05T09:33:02;101835.26;;;12.76;29.46
38452;BME280;24231;52.514;13.438;2023-04-05T09:35:32;101835.15;;;12.53;29.35
38452;BME280;24231;52.514;13.438;2023-04-05T09:38:00;101833.24;;;13.76;27.70
38452;BME280;24231;52.514;13.438;2023-04-05T09:40:40;101832.16;;;14.11;27.46
38452;BME280;24231;52.514;13.438;2023-04-05T09:43:09;101830.70;;;13.79;27.08
38452;BME280;24231;52.514;13.438;2023-04-05T09:45:39;101830.61;;;13.42;27.66
38452;BME280;24231;52.514;13.438;2023-04-05T09:48:08;101829.85;;;13.05;28.40
38452;BME280;24231;52.514;13.438;2023-04-05T09:50:35;101832.21;;;11.44;29.79
38452;BME280;24231;52.514;13.438;2023-04-05T09:53:06;101830.02;;;11.81;29.48
38452;BME280;24231;52.514;13.438;2023-04-05T09:55:34;101833.22;;;11.78;29.40
38452;BME280;24231;52.514;13.438;2023-04-05T09:58:02;101829.57;;;12.18;29.34
38452;BME280;24231;52.514;13.438;2023-04-05T10:00:29;101825.95;;;12.43;30.11
38452;BME280;24231;52.514;13.438;2023-04-05T10:02:56;101831.05;;;10.47;31.06
38452;BME280;24231;52.514;13.438;2023-04-05T10:05:34;101831.70;;;9.27;33.32
38452;BME280;24231;52.514;13.438;2023-04-05T10:08:01;101826.69;;;10.84;31.35
38452;BME280;24231;52.514;13.438;2023-04-05T10:10:28;101819.55;;;11.57;30.60
38452;BME280;24231;52.514;13.438;2023-04-05T10:12:57;101821.35;;;11.89;30.13
38452;BME280;24231;52.514;13.438;2023-04-05T10:15:42;101818.30;;;12.68;29.46
38452;BME280;24231;52.514;13.438;2023-04-05T10:18:20;101812.71;;;13.02;28.67
38452;BME280;24231;52.514;13.438;2023-04-05T10:20:55;101816.74;;;13.77;27.49
38452;BME280;24231;52.514;13.438;2023-04-05T10:23:34;101819.42;;;11.43;30.35
38452;BME280;24231;52.514;13.438;2023-04-05T10:26:08;101820.35;;;11.44;30.28
38452;BME280;24231;52.514;13.438;2023-04-05T10:29:36;101815.03;;;11.05;32.18
38452;BME280;24231;52.514;13.438;2023-04-05T10:32:10;101814.32;;;12.14;30.60
38452;BME280;24231;52.514;13.438;2023-04-05T10:34:44;101813.39;;;11.55;31.55
38452;BME280;24231;52.514;13.438;2023-04-05T10:37:23;101824.11;;;9.67;33.19
38452;BME280;24231;52.514;13.438;2023-04-05T10:39:57;101812.96;;;11.32;31.90
38452;BME280;24231;52.514;13.438;2023-04-05T10:42:27;101811.82;;;11.90;31.31
38452;BME280;24231;52.514;13.438;2023-04-05T10:45:03;101809.18;;;12.10;30.46
38452;BME280;24231;52.514;13.438;2023-04-05T10:47:37;101810.17;;;11.45;31.48
38452;BME280;24231;52.514;13.438;2023-04-05T10:50:13;101813.17;;;11.00;31.89
38452;BME280;24231;52.514;13.438;2023-04-05T10:52:43;101813.88;;;10.70;32.42
38452;BME280;24231;52.514;13.438;2023-04-05T10:55:11;101809.11;;;10.82;32.74
38452;BME280;24231;52.514;13.438;2023-04-05T10:57:39;101809.87;;;11.04;32.19
38452;BME280;24231;52.514;13.438;2023-04-05T11:00:07;101813.26;;;9.51;34.62
38452;BME280;24231;52.514;13.438;2023-04-05T11:02:36;101812.07;;;10.61;33.08
38452;BME280;24231;52.514;13.438;2023-04-05T11:05:04;101809.09;;;10.81;33.51
38452;BME280;24231;52.514;13.438;2023-04-05T11:07:42;101803.73;;;10.85;32.85
38452;BME280;24231;52.514;13.438;2023-04-05T11:10:15;101808.44;;;10.82;33.21
38452;BME280;24231;52.514;13.438;2023-04-05T11:13:15;101802.79;;;11.09;32.35
38452;BME280;24231;52.514;13.438;2023-04-05T11:15:42;101797.73;;;11.08;32.57
38452;BME280;24231;52.514;13.438;2023-04-05T11:18:11;101802.13;;;10.82;33.41
38452;BME280;24231;52.514;13.438;2023-04-05T11:20:42;101798.06;;;11.10;32.78
38452;BME280;24231;52.514;13.438;2023-04-05T11:23:11;101797.16;;;11.27;32.57
38452;BME280;24231;52.514;13.438;2023-04-05T11:25:39;101794.87;;;11.16;32.81
38452;BME280;24231;52.514;13.438;2023-04-05T11:28:22;101795.13;;;11.32;32.96
38452;BME280;24231;52.514;13.438;2023-04-05T11:30:49;101800.27;;;9.98;34.68
38452;BME280;24231;52.514;13.438;2023-04-05T11:34:23;101801.74;;;9.04;36.71
38452;BME280;24231;52.514;13.438;2023-04-05T11:36:51;101794.38;;;8.97;37.39
38452;BME280;24231;52.514;13.438;2023-04-05T11:39:26;101795.15;;;10.48;34.93
38452;BME280;24231;52.514;13.438;2023-04-05T11:41:58;101786.52;;;11.09;34.02
38452;BME280;24231;52.514;13.438;2023-04-05T11:44:26;101794.71;;;10.86;34.32
38452;BME280;24231;52.514;13.438;2023-04-05T11:46:54;101792.38;;;11.01;33.86
38452;BME280;24231;52.514;13.438;2023-04-05T11:49:22;101798.27;;;10.44;34.45
38452;BME280;24231;52.514;13.438;2023-04-05T11:51:51;101799.03;;;10.37;34.57
38452;BME280;24231;52.514;13.438;2023-04-05T11:54:34;101795.88;;;10.10;35.45
38452;BME280;24231;52.514;13.438;2023-04-05T11:57:01;101791.03;;;11.00;34.15
38452;BME280;24231;52.514;13.438;2023-04-05T11:59:30;101789.13;;;11.24;33.74
38452;BME280;24231;52.514;13.438;2023-04-05T12:01:59;101796.22;;;9.43;36.68
38452;BME280;24231;52.514;13.438;2023-04-05T12:04:27;101792.97;;;11.07;35.00
38452;BME280;24231;52.514;13.438;2023-04-05T12:07:12;101792.19;;;10.77;35.15
38452;BME280;24231;52.514;13.438;2023-04-05T12:09:58;101789.94;;;11.15;33.53
38452;BME280;24231;52.514;13.438;2023-04-05T12:12:26;101791.42;;;11.17;33.05
38452;BME280;24231;52.514;13.438;2023-04-05T12:14:58;101782.71;;;11.41;32.16
38452;BME280;24231;52.514;13.438;2023-04-05T12:17:44;101782.93;;;10.93;33.54
38452;BME280;24231;52.514;13.438;2023-04-05T12:20:14;101785.71;;;9.15;36.86
38452;BME280;24231;52.514;13.438;2023-04-05T12:22:43;101785.55;;;9.50;36.95
38452;BME280;24231;52.514;13.438;2023-04-05T12:25:12;101784.45;;;9.22;37.42
38452;BME280;24231;52.514;13.438;2023-04-05T12:27:40;101787.80;;;9.42;37.02
38452;BME280;24231;52.514;13.438;2023-04-05T12:30:10;101787.37;;;9.71;36.32
38452;BME280;24231;52.514;13.438;2023-04-05T12:32:45;101782.25;;;10.55;35.60
38452;BME280;24231;52.514;13.438;2023-04-05T12:35:15;101777.44;;;9.81;35.25
38452;BME280;24231;52.514;13.438;2023-04-05T12:37:45;101774.17;;;10.29;35.30
38452;BME280;24231;52.514;13.438;2023-04-05T12:40:13;101767.95;;;10.51;34.80
38452;BME280;24231;52.514;13.438;2023-04-05T12:42:40;101771.21;;;10.51;34.95
38452;BME280;24231;52.514;13.438;2023-04-05T12:45:11;101763.09;;;10.83;33.93
38452;BME280;24231;52.514;13.438;2023-04-05T12:47:57;101758.80;;;11.50;32.80
38452;BME280;24231;52.514;13.438;2023-04-05T12:50:26;101761.97;;;11.52;33.00
38452;BME280;24231;52.514;13.438;2023-04-05T12:52:56;101765.60;;;9.61;36.56
38452;BME280;24231;52.514;13.438;2023-04-05T12:55:24;101765.52;;;9.64;36.56
38452;BME280;24231;52.514;13.438;2023-04-05T12:57:54;101766.51;;;10.13;35.73
38452;BME280;24231;52.514;13.438;2023-04-05T13:00:22;101763.24;;;10.27;35.50